CSH4590 ZUGY-ZBSN
Flight info
| Callsign | CSH4590 |
|---|---|
| Flight time | N/A |
| Altitude | 33100 |
| Route | AGTIS W3 DS W4 VIBOD W275 WJC G212 VYK W34 PAMRU V48 BIMEG |
| Aircraft | B738/M-SDE2E3FGHIM3RWY/EB1 |
Departure
| Time | 2026-05-04 07:43 |
|---|---|
| Airport | Guiyang Longdongbao International Airport (ZUGY) |
Arrival
| Time | N/A |
|---|---|
| Airport | Tangshan Sannühe Airport (ZBSN) |
| Time | Latitude | Longitude | Altitude | Speed | Heading |
|---|---|---|---|---|---|
| 2026-05-04 07:22 | 26.54866 | 106.79888 | 3739 ft | 0 kts | 11° |
| 2026-05-04 07:33 | 26.54854 | 106.79885 | 3739 ft | 4 kts | 11° |
| 2026-05-04 07:33 | 26.54832 | 106.79881 | 3739 ft | 4 kts | 25° |
| 2026-05-04 07:33 | 26.54819 | 106.79862 | 3739 ft | 4 kts | 83° |
| 2026-05-04 07:34 | 26.54819 | 106.79832 | 3739 ft | 4 kts | 98° |
| 2026-05-04 07:34 | 26.54820 | 106.79824 | 3739 ft | 0 kts | 100° |
| 2026-05-04 07:38 | 26.54785 | 106.80041 | 3740 ft | 11 kts | 100° |
| 2026-05-04 07:38 | 26.54790 | 106.80110 | 3740 ft | 9 kts | 43° |
| 2026-05-04 07:38 | 26.54852 | 106.80128 | 3740 ft | 9 kts | 9° |
| 2026-05-04 07:38 | 26.54920 | 106.80141 | 3740 ft | 11 kts | 10° |
| 2026-05-04 07:39 | 26.55004 | 106.80158 | 3739 ft | 14 kts | 10° |
| 2026-05-04 07:39 | 26.55104 | 106.80177 | 3739 ft | 16 kts | 10° |
| 2026-05-04 07:39 | 26.55221 | 106.80200 | 3738 ft | 18 kts | 9° |
| 2026-05-04 07:39 | 26.55352 | 106.80225 | 3738 ft | 20 kts | 9° |
| 2026-05-04 07:40 | 26.55474 | 106.80249 | 3738 ft | 11 kts | 10° |
| 2026-05-04 07:40 | 26.55516 | 106.80284 | 3737 ft | 8 kts | 74° |
| 2026-05-04 07:40 | 26.55515 | 106.80317 | 3737 ft | 0 kts | 102° |
| 2026-05-04 07:40 | 26.55515 | 106.80318 | 3737 ft | 0 kts | 102° |
| 2026-05-04 07:41 | 26.55513 | 106.80326 | 3737 ft | 3 kts | 102° |
| 2026-05-04 07:41 | 26.55507 | 106.80361 | 3737 ft | 7 kts | 100° |
| 2026-05-04 07:41 | 26.55497 | 106.80415 | 3736 ft | 7 kts | 116° |
| 2026-05-04 07:41 | 26.55456 | 106.80435 | 3736 ft | 7 kts | 182° |
| 2026-05-04 07:42 | 26.55432 | 106.80431 | 3736 ft | 0 kts | 190° |
| 2026-05-04 07:42 | 26.55354 | 106.80414 | 3737 ft | 37 kts | 191° |
| 2026-05-04 07:42 | 26.54894 | 106.80325 | 3741 ft | 96 kts | 189° |
| 2026-05-04 07:43 | 26.54075 | 106.80165 | 3740 ft | 144 kts | 189° |
| 2026-05-04 07:43 | 26.52975 | 106.79943 | 3940 ft | 166 kts | 191° |
| 2026-05-04 07:43 | 26.51812 | 106.79721 | 4470 ft | 176 kts | 190° |
| 2026-05-04 07:43 | 26.50606 | 106.79516 | 5201 ft | 172 kts | 188° |
| 2026-05-04 07:44 | 26.49414 | 106.79286 | 5799 ft | 175 kts | 190° |
| 2026-05-04 07:44 | 26.48198 | 106.79038 | 6367 ft | 180 kts | 189° |
| 2026-05-04 07:44 | 26.46954 | 106.78793 | 6909 ft | 186 kts | 190° |
| 2026-05-04 07:44 | 26.45595 | 106.78513 | 7052 ft | 211 kts | 191° |
| 2026-05-04 07:45 | 26.44091 | 106.78209 | 7279 ft | 226 kts | 190° |
| 2026-05-04 07:45 | 26.42544 | 106.77909 | 7682 ft | 231 kts | 190° |
| 2026-05-04 07:45 | 26.41038 | 106.77343 | 8232 ft | 229 kts | 216° |
| 2026-05-04 07:45 | 26.40074 | 106.75968 | 8756 ft | 229 kts | 251° |
| 2026-05-04 07:46 | 26.39930 | 106.74209 | 9235 ft | 232 kts | 282° |
| 2026-05-04 07:46 | 26.40606 | 106.72604 | 9808 ft | 234 kts | 309° |
| 2026-05-04 07:46 | 26.41882 | 106.71396 | 10119 ft | 248 kts | 330° |
| 2026-05-04 07:46 | 26.43470 | 106.70799 | 10876 ft | 238 kts | 343° |
| 2026-05-04 07:47 | 26.45051 | 106.70281 | 11464 ft | 237 kts | 339° |
| 2026-05-04 07:47 | 26.46601 | 106.69667 | 11917 ft | 240 kts | 337° |
| 2026-05-04 07:47 | 26.48159 | 106.69023 | 12555 ft | 238 kts | 337° |
| 2026-05-04 07:49 | 26.61966 | 106.69809 | 14275 ft | 363 kts | 7° |
| 2026-05-04 07:49 | 26.64488 | 106.70349 | 14675 ft | 373 kts | 7° |
| 2026-05-04 07:49 | 26.67051 | 106.70874 | 15288 ft | 376 kts | 6° |
| 2026-05-04 07:50 | 26.69645 | 106.71386 | 15832 ft | 381 kts | 6° |
| 2026-05-04 07:50 | 26.72265 | 106.71896 | 16448 ft | 383 kts | 6° |
| 2026-05-04 07:50 | 26.74901 | 106.72409 | 17048 ft | 386 kts | 5° |
| 2026-05-04 07:50 | 26.77562 | 106.72928 | 17613 ft | 390 kts | 5° |
| 2026-05-04 07:51 | 26.80216 | 106.73446 | 18144 ft | 394 kts | 5° |
| 2026-05-04 07:51 | 26.82927 | 106.73977 | 18665 ft | 397 kts | 5° |
| 2026-05-04 07:51 | 26.85667 | 106.74514 | 19136 ft | 401 kts | 5° |
| 2026-05-04 07:51 | 26.88422 | 106.75055 | 19608 ft | 404 kts | 4° |
| 2026-05-04 07:52 | 26.91206 | 106.75601 | 20072 ft | 407 kts | 4° |
| 2026-05-04 07:52 | 26.94009 | 106.76124 | 20514 ft | 409 kts | 0° |
| 2026-05-04 07:52 | 26.96810 | 106.76245 | 20944 ft | 407 kts | 353° |
| 2026-05-04 07:52 | 26.99639 | 106.76152 | 21493 ft | 406 kts | 351° |
| 2026-05-04 07:53 | 27.02470 | 106.76015 | 21956 ft | 409 kts | 351° |
| 2026-05-04 07:54 | 27.22849 | 106.75359 | 24834 ft | 428 kts | 351° |
| 2026-05-04 07:55 | 27.25833 | 106.75283 | 25155 ft | 430 kts | 350° |
| 2026-05-04 07:55 | 27.28830 | 106.75206 | 25469 ft | 432 kts | 350° |
| 2026-05-04 07:55 | 27.31849 | 106.75129 | 25794 ft | 434 kts | 350° |
| 2026-05-04 07:55 | 27.34768 | 106.75053 | 26101 ft | 437 kts | 350° |
| 2026-05-04 07:56 | 27.37887 | 106.74978 | 26455 ft | 439 kts | 351° |
| 2026-05-04 07:56 | 27.40910 | 106.74951 | 26787 ft | 442 kts | 351° |
| 2026-05-04 07:56 | 27.43995 | 106.74956 | 27120 ft | 444 kts | 352° |
| 2026-05-04 07:56 | 27.47089 | 106.74972 | 27519 ft | 444 kts | 351° |
| 2026-05-04 07:57 | 27.50189 | 106.74988 | 27788 ft | 447 kts | 352° |
| 2026-05-04 07:57 | 27.53308 | 106.75000 | 28095 ft | 449 kts | 351° |
| 2026-05-04 07:57 | 27.56400 | 106.75007 | 28339 ft | 452 kts | 351° |
| 2026-05-04 07:57 | 27.59558 | 106.75012 | 28595 ft | 454 kts | 351° |
| 2026-05-04 07:58 | 27.62722 | 106.75015 | 28890 ft | 456 kts | 351° |
| 2026-05-04 07:58 | 27.65898 | 106.75018 | 29180 ft | 457 kts | 351° |
| 2026-05-04 07:58 | 27.69084 | 106.75021 | 29500 ft | 458 kts | 351° |
| 2026-05-04 07:58 | 27.72249 | 106.75028 | 30021 ft | 453 kts | 351° |
| 2026-05-04 07:59 | 27.75394 | 106.75033 | 30390 ft | 452 kts | 351° |
| 2026-05-04 07:59 | 27.78541 | 106.75035 | 30715 ft | 452 kts | 350° |
| 2026-05-04 07:59 | 27.81637 | 106.75037 | 31113 ft | 450 kts | 350° |
| 2026-05-04 07:59 | 27.84751 | 106.75041 | 31573 ft | 446 kts | 350° |
| 2026-05-04 08:00 | 27.87841 | 106.75046 | 32037 ft | 441 kts | 350° |
| 2026-05-04 08:00 | 27.90905 | 106.75048 | 32386 ft | 440 kts | 350° |
| 2026-05-04 08:00 | 27.93972 | 106.75047 | 32695 ft | 441 kts | 350° |
| 2026-05-04 08:02 | 28.15414 | 106.75060 | 33223 ft | 438 kts | 350° |
| 2026-05-04 08:02 | 28.21506 | 106.75066 | 33233 ft | 437 kts | 350° |
| 2026-05-04 08:03 | 28.27548 | 106.75074 | 33229 ft | 436 kts | 350° |
| 2026-05-04 08:03 | 28.33617 | 106.75082 | 33210 ft | 436 kts | 350° |
| 2026-05-04 08:04 | 28.39681 | 106.75087 | 33207 ft | 435 kts | 350° |
| 2026-05-04 08:04 | 28.45692 | 106.75092 | 33189 ft | 434 kts | 350° |
| 2026-05-04 08:05 | 28.51734 | 106.75096 | 33208 ft | 435 kts | 350° |
| 2026-05-04 08:05 | 28.57803 | 106.75099 | 33193 ft | 436 kts | 350° |
| 2026-05-04 08:06 | 28.63878 | 106.75104 | 33193 ft | 437 kts | 350° |
| 2026-05-04 08:06 | 28.69918 | 106.75110 | 33195 ft | 437 kts | 350° |
| 2026-05-04 08:08 | 28.94248 | 106.75132 | 33177 ft | 436 kts | 350° |
| 2026-05-04 08:11 | 29.21592 | 106.75152 | 33153 ft | 437 kts | 349° |
| 2026-05-04 08:11 | 29.30654 | 106.75160 | 33150 ft | 435 kts | 350° |
| 2026-05-04 08:12 | 29.36706 | 106.75164 | 33154 ft | 435 kts | 350° |
| 2026-05-04 08:12 | 29.42776 | 106.75168 | 33141 ft | 437 kts | 350° |
| 2026-05-04 08:13 | 29.48859 | 106.75174 | 33140 ft | 437 kts | 350° |
| 2026-05-04 08:13 | 29.54911 | 106.75179 | 33141 ft | 438 kts | 351° |
| 2026-05-04 08:14 | 29.61024 | 106.75185 | 33133 ft | 439 kts | 351° |
| 2026-05-04 08:16 | 29.85397 | 106.75209 | 33129 ft | 437 kts | 351° |
| 2026-05-04 08:16 | 29.91477 | 106.75215 | 33134 ft | 436 kts | 351° |
| 2026-05-04 08:17 | 29.97532 | 106.75517 | 33138 ft | 446 kts | 0° |
| 2026-05-04 08:17 | 30.00588 | 106.76327 | 33125 ft | 457 kts | 9° |
| 2026-05-04 08:17 | 30.03582 | 106.77604 | 33156 ft | 460 kts | 12° |
| 2026-05-04 08:19 | 30.24166 | 106.88003 | 33148 ft | 477 kts | 28° |
| 2026-05-04 08:19 | 30.26856 | 106.90266 | 33143 ft | 478 kts | 28° |
| 2026-05-04 08:20 | 30.32216 | 106.94737 | 33131 ft | 477 kts | 27° |
| 2026-05-04 08:20 | 30.37645 | 106.99138 | 33134 ft | 475 kts | 27° |
| 2026-05-04 08:21 | 30.43064 | 107.03498 | 33139 ft | 474 kts | 27° |
| 2026-05-04 08:21 | 30.48486 | 107.07868 | 33132 ft | 474 kts | 27° |
| 2026-05-04 08:22 | 30.53859 | 107.12211 | 33122 ft | 474 kts | 27° |
| 2026-05-04 08:24 | 30.75450 | 107.29734 | 33126 ft | 475 kts | 28° |
| 2026-05-04 08:24 | 30.80866 | 107.34147 | 33128 ft | 476 kts | 28° |
| 2026-05-04 08:25 | 30.86293 | 107.38568 | 33120 ft | 476 kts | 27° |
| 2026-05-04 08:25 | 30.91890 | 107.42628 | 33119 ft | 472 kts | 24° |
| 2026-05-04 08:27 | 31.15145 | 107.55193 | 33116 ft | 452 kts | 9° |
| 2026-05-04 08:28 | 31.21199 | 107.57202 | 33125 ft | 452 kts | 10° |
| 2026-05-04 08:28 | 31.27249 | 107.59277 | 33119 ft | 454 kts | 10° |
| 2026-05-04 08:29 | 31.33316 | 107.61366 | 33123 ft | 456 kts | 10° |
| 2026-05-04 08:31 | 31.57697 | 107.69786 | 33109 ft | 458 kts | 11° |
| 2026-05-04 08:33 | 31.82100 | 107.78263 | 33105 ft | 455 kts | 11° |
| 2026-05-04 08:35 | 32.06071 | 107.86633 | 33109 ft | 449 kts | 12° |
| 2026-05-04 08:35 | 32.12082 | 107.88740 | 33101 ft | 451 kts | 12° |
| 2026-05-04 08:37 | 32.33099 | 107.96119 | 33092 ft | 450 kts | 13° |
| 2026-05-04 08:38 | 32.39114 | 107.98237 | 33087 ft | 450 kts | 13° |
| 2026-05-04 08:38 | 32.45116 | 108.00353 | 33090 ft | 450 kts | 13° |
| 2026-05-04 08:40 | 32.69080 | 108.08810 | 33067 ft | 449 kts | 14° |
| 2026-05-04 08:41 | 32.75027 | 108.10915 | 33069 ft | 449 kts | 14° |
| 2026-05-04 08:41 | 32.81020 | 108.13038 | 33064 ft | 449 kts | 14° |
| 2026-05-04 08:42 | 32.87010 | 108.15164 | 33062 ft | 449 kts | 14° |
| 2026-05-04 08:42 | 32.92952 | 108.17277 | 33057 ft | 448 kts | 14° |
| 2026-05-04 08:43 | 32.98921 | 108.19401 | 33059 ft | 447 kts | 14° |
| 2026-05-04 08:43 | 33.04877 | 108.21524 | 33055 ft | 446 kts | 14° |
| 2026-05-04 08:44 | 33.10808 | 108.23641 | 33062 ft | 444 kts | 14° |
| 2026-05-04 08:46 | 33.34378 | 108.32137 | 33091 ft | 442 kts | 16° |
| 2026-05-04 08:46 | 33.39205 | 108.34161 | 33082 ft | 442 kts | 17° |
| 2026-05-04 08:47 | 33.45919 | 108.37064 | 33107 ft | 441 kts | 17° |
| 2026-05-04 08:47 | 33.51693 | 108.39531 | 33095 ft | 440 kts | 17° |
| 2026-05-04 08:48 | 33.57465 | 108.41977 | 33099 ft | 439 kts | 17° |
| 2026-05-04 08:48 | 33.63185 | 108.44396 | 33079 ft | 438 kts | 17° |
| 2026-05-04 08:49 | 33.68923 | 108.46826 | 33096 ft | 437 kts | 17° |
| 2026-05-04 08:50 | 33.88921 | 108.55328 | 33053 ft | 436 kts | 17° |
| 2026-05-04 08:51 | 33.94636 | 108.57766 | 33034 ft | 436 kts | 17° |
| 2026-05-04 08:51 | 34.00313 | 108.60191 | 33035 ft | 436 kts | 17° |
| 2026-05-04 08:52 | 34.05066 | 108.62223 | 33019 ft | 436 kts | 17° |
| 2026-05-04 08:52 | 34.07000 | 108.63051 | 33023 ft | 436 kts | 17° |